• Join FlightAware (Why Join?)
  • Login
  • US Flag 
04:58PM EST


 

Airport Tracker/Info


-or-


 

Live Flight TrackerFlight Track Log ✈ N865JM ✈ 18-Oct-2013 ✈ KAPA - KPBI

Flight Track Log - Related Links

Times and Time Zones

All times are in EDT time to prevent confusion due to time zone crossing. See the N865JM flight status page for this flight to view local times or setup timezone preferences in your user account.

Time Position Orientation Groundspeed Altitude Reporting Facility
EDT Latitude Longitude Course Direction KTS MPH feet Rate Location/Type
08:52PM 39.4228 -104.7233 138° Southeast 318 366 12,800  Level Denver Center
08:54PM 39.4594 -104.6211 65° Northeast 319 367 16,100 3,000 Climbing Denver Center
08:55PM 39.4964 -104.5086 67° East 318 366 19,000 2,460 Climbing Denver Center
08:56PM 39.5322 -104.4019 66° East 324 373 21,300 2,220 Climbing Denver Center
08:57PM 39.5714 -104.2819 67° East 335 386 23,600 2,040 Climbing Denver Center
08:58PM 39.6097 -104.1664 67° East 345 397 25,600 1,740 Climbing Denver Center
08:59PM 39.6481 -104.0492 67° East 353 406 27,200 1,500 Climbing Denver Center
09:00PM 39.6889 -103.9269 66° East 368 423 28,700 1,200 Climbing Denver Center
09:01PM 39.7200 -103.7947 73° East 382 440 29,800 1,020 Climbing Denver Center
09:02PM 39.6944 -103.6428 102° East 436 502 30,900 1,080 Climbing Denver Center
09:03PM 39.6206 -103.4661 118° Southeast 464 534 32,100 1,020 Climbing Denver Center
09:04PM 39.5578 -103.3186 119° Southeast 467 537 33,100 960 Climbing Denver Center
09:05PM 39.4950 -103.1703 119° Southeast 469 540 34,100 840 Climbing Denver Center
09:06PM 39.4317 -103.0206 119° Southeast 472 543 34,900 720 Climbing Denver Center
09:07PM 39.3683 -102.8731 119° Southeast 471 542 35,700 600 Climbing Denver Center
09:08PM 39.3017 -102.7203 119° Southeast 470 541 36,200 420 Climbing Denver Center
09:09PM 39.2286 -102.5536 119° Southeast 478 550 36,600 360 Climbing Denver Center
09:10PM 39.1667 -102.4108 119° Southeast 477 549 37,000 300 Climbing Denver Center
09:11PM 39.0933 -102.2439 119° Southeast 480 552 37,300 300 Climbing Denver Center
09:12PM 39.0300 -102.1014 120° Southeast 479 551 37,700 420 Climbing Denver Center
09:13PM 38.9658 -101.9578 120° Southeast 481 554 38,200 420 Climbing Denver Center
09:14PM 38.8922 -101.7919 120° Southeast 480 552 38,600 240 Climbing Denver Center
09:15PM 38.8283 -101.6497 120° Southeast 480 552 38,800 180 Climbing Denver Center
09:16PM 38.7522 -101.4831 120° Southeast 483 556 39,000 60 Climbing Denver Center
09:17PM 38.6875 -101.3386 120° Southeast 488 562 39,000  Level Denver Center
09:18PM 38.6111 -101.1711 120° Southeast 488 562 39,000  Level Denver Center
09:19PM 38.5447 -101.0261 120° Southeast 490 564 39,000  Level Denver Center
09:20PM 38.4789 -100.8825 120° Southeast 489 563 39,000  Level Denver Center
09:21PM 38.4331 -100.7853 121° Southeast 490 564 39,000  Level Kansas City Center
09:22PM 38.3658 -100.6408 121° Southeast 492 566 39,000  Level Kansas City Center
09:23PM 38.3006 -100.4989 120° Southeast 488 562 39,000  Level Kansas City Center
09:24PM 38.2214 -100.3328 121° Southeast 488 562 39,000  Level Kansas City Center
09:25PM 38.1561 -100.1919 120° Southeast 484 557 39,000  Level Kansas City Center
09:26PM 38.0894 -100.0525 121° Southeast 482 555 39,000  Level Kansas City Center
09:27PM 38.0131 -99.8897 121° Southeast 480 552 39,000  Level Kansas City Center
09:28PM 37.9458 -99.7494 121° Southeast 483 556 39,000  Level Kansas City Center
09:29PM 37.8683 -99.5861 121° Southeast 483 556 39,000  Level Kansas City Center
09:30PM 37.8025 -99.4486 121° Southeast 484 557 39,000  Level Kansas City Center
09:31PM 37.7339 -99.3025 121° Southeast 485 558 39,000  Level Kansas City Center
09:32PM 37.6622 -99.1550 122° Southeast 490 564 39,000  Level Kansas City Center
09:33PM 37.5903 -99.0075 122° Southeast 494 568 39,000  Level Kansas City Center
09:34PM 37.5167 -98.8581 122° Southeast 500 575 39,000  Level Kansas City Center
09:35PM 37.4442 -98.7097 122° Southeast 502 578 39,000  Level Kansas City Center
09:36PM 37.3567 -98.5331 122° Southeast 499 574 39,000  Level Kansas City Center
09:37PM 37.2844 -98.3856 122° Southeast 499 574 39,000  Level Kansas City Center
09:38PM 37.2117 -98.2400 122° Southeast 498 573 39,000  Level Kansas City Center
09:39PM 37.1392 -98.0953 122° Southeast 494 568 39,000  Level Kansas City Center
09:40PM 37.0675 -97.9522 122° Southeast 492 566 39,000  Level Kansas City Center
09:41PM 36.9942 -97.8092 123° Southeast 491 565 39,000  Level Kansas City Center
09:42PM 36.9211 -97.6656 122° Southeast 489 563 39,000  Level Kansas City Center
09:43PM 36.8481 -97.5197 122° Southeast 493 567 39,000  Level Kansas City Center
09:44PM 36.7625 -97.3425 121° Southeast 491 565 39,000  Level Kansas City Center
09:45PM 36.6892 -97.1994 123° Southeast 489 563 39,000  Level Kansas City Center
09:46PM 36.6136 -97.0603 124° Southeast 479 551 39,000  Level Kansas City Center
09:47PM 36.5442 -96.9247 122° Southeast 472 543 39,000  Level Kansas City Center
09:48PM 36.4703 -96.7833 123° Southeast 481 554 39,000  Level Kansas City Center
09:49PM 36.3953 -96.6397 123° Southeast 485 558 39,000  Level Kansas City Center
09:50PM 36.3222 -96.5000 123° Southeast 484 557 39,000  Level Kansas City Center
09:51PM 36.2486 -96.3619 123° Southeast 482 555 39,000  Level Kansas City Center
09:52PM 36.1744 -96.2242 124° Southeast 483 556 39,000  Level Kansas City Center
09:54PM 36.1006 -96.0864 124° Southeast 483 556 39,000  Level Kansas City Center
09:55PM 36.0269 -95.9481 123° Southeast 483 556 39,000  Level Kansas City Center
09:56PM 35.9383 -95.7819 123° Southeast 485 558 39,000  Level Kansas City Center
09:57PM 35.8658 -95.6450 123° Southeast 482 555 39,000  Level Kansas City Center
09:58PM 35.7925 -95.5097 124° Southeast 478 550 39,000  Level Kansas City Center
09:59PM 35.7206 -95.3758 123° Southeast 473 544 39,000  Level Kansas City Center
10:00PM 35.6475 -95.2417 124° Southeast 473 544 39,000  Level Kansas City Center
10:01PM 35.5744 -95.1089 124° Southeast 471 542 39,000  Level Kansas City Center
10:02PM 35.5019 -94.9736 123° Southeast 473 544 39,000  Level Kansas City Center
10:03PM 35.4114 -94.8228 126° Southeast 479 551 39,000  Level Memphis Center
10:04PM 35.3389 -94.6917 124° Southeast 479 551 39,000  Level Memphis Center
10:05PM 35.2644 -94.5506 123° Southeast 487 560 39,000  Level Memphis Center
10:06PM 35.1917 -94.4197 124° Southeast 481 554 39,000  Level Memphis Center
10:07PM 35.1186 -94.2894 124° Southeast 481 554 39,000  Level Memphis Center
10:08PM 35.0475 -94.1592 124° Southeast 474 545 39,000  Level Memphis Center
10:09PM 34.9681 -94.0264 126° Southeast 474 545 39,000  Level Memphis Center
10:10PM 34.8947 -93.8942 124° Southeast 474 545 39,000  Level Memphis Center
10:11PM 34.8233 -93.7647 124° Southeast 474 545 39,000  Level Memphis Center
10:12PM 34.7475 -93.6328 125° Southeast 479 551 39,000  Level Memphis Center
10:13PM 34.6656 -93.4856 124° Southeast 487 560 39,000  Level Memphis Center
10:14PM 34.5917 -93.3617 126° Southeast 477 549 39,000  Level Memphis Center
10:15PM 34.5153 -93.2306 125° Southeast 477 549 39,000  Level Memphis Center
10:16PM 34.4411 -93.0997 124° Southeast 477 549 39,000  Level Memphis Center
10:17PM 34.3667 -92.9664 124° Southeast 477 549 39,000  Level Memphis Center
10:18PM 34.2964 -92.8411 124° Southeast 480 552 39,000  Level Memphis Center
10:19PM 34.2194 -92.7133 126° Southeast 475 547 39,000  Level Memphis Center
10:20PM 34.1383 -92.5781 126° Southeast 487 560 39,000  Level Memphis Center
10:21PM 34.0633 -92.4483 125° Southeast 487 560 39,000  Level Memphis Center
10:22PM 33.9903 -92.3239 125° Southeast 474 545 39,000  Level Memphis Center
10:23PM 33.9131 -92.1944 126° Southeast 474 545 39,000  Level Memphis Center
10:24PM 33.8356 -92.0603 125° Southeast 481 554 39,000  Level Memphis Center
10:25PM 33.7558 -91.9286 126° Southeast 481 554 39,000  Level Memphis Center
10:26PM 33.6803 -91.8025 126° Southeast 481 554 39,000  Level Memphis Center
10:27PM 33.6042 -91.6867 128° Southeast 481 554 39,000  Level Memphis Center
10:28PM 33.5283 -91.5583 125° Southeast 486 559 39,000  Level Memphis Center
10:29PM 33.4544 -91.4328 125° Southeast 481 554 39,000  Level Memphis Center
10:30PM 33.3761 -91.3075 127° Southeast 481 554 39,000  Level Memphis Center
10:31PM 33.2997 -91.1825 126° Southeast 476 548 39,000  Level Memphis Center
10:32PM 33.2233 -91.0550 126° Southeast 470 541 39,000  Level Memphis Center
10:33PM 33.1467 -90.9306 126° Southeast 470 541 39,000  Level Memphis Center
10:34PM 33.0617 -90.7936 126° Southeast 470 541 39,000  Level Memphis Center
10:35PM 32.9847 -90.6694 126° Southeast 470 541 39,000  Level Memphis Center
10:36PM 32.9078 -90.5428 126° Southeast 470 541 39,000  Level Memphis Center
10:37PM 32.8306 -90.4192 127° Southeast 470 541 39,000  Level Memphis Center
10:38PM 32.7511 -90.2956 127° Southeast 470 541 39,000  Level Memphis Center
10:39PM 32.6717 -90.1697 127° Southeast 475 547 39,000  Level Memphis Center
10:40PM 32.5922 -90.0442 127° Southeast 480 552 39,000  Level Memphis Center
10:41PM 32.5125 -89.9164 126° Southeast 480 552 39,000  Level Memphis Center
10:42PM 32.4411 -89.8011 126° Southeast 480 552 39,000  Level Memphis Center
10:43PM 32.3611 -89.6761 127° Southeast 485 558 39,000  Level Memphis Center
10:44PM 32.2831 -89.5464 125° Southeast 485 558 39,000  Level Memphis Center
10:45PM 32.2028 -89.4219 127° Southeast 485 558 39,000  Level Memphis Center
10:46PM 32.1183 -89.2928 128° Southeast 485 558 39,000  Level Memphis Center
10:47PM 32.0378 -89.1664 127° Southeast 485 558 39,000  Level Memphis Center
10:48PM 31.9531 -89.0378 128° Southeast 485 558 39,000  Level Memphis Center
10:49PM 31.8744 -88.9133 127° Southeast 485 558 39,000  Level Houston Center
10:50PM 31.7922 -88.7872 127° Southeast 483 556 39,000  Level Houston Center
10:51PM 31.7114 -88.6625 127° Southeast 478 550 39,000  Level Houston Center
10:52PM 31.6292 -88.5375 128° Southeast 479 551 39,000  Level Houston Center
10:53PM 31.5469 -88.4114 127° Southeast 481 554 39,000  Level Houston Center
10:54PM 31.4644 -88.2861 128° Southeast 481 554 39,000  Level Houston Center
10:55PM 31.3814 -88.1586 127° Southeast 483 556 39,000  Level Houston Center
10:56PM 31.2997 -88.0339 127° Southeast 478 550 39,000  Level Houston Center
10:57PM 31.2169 -87.9114 128° Southeast 470 541 39,000  Level Houston Center
10:58PM 31.1350 -87.7928 129° Southeast 468 539 39,000  Level Houston Center
10:59PM 31.0564 -87.6744 128° Southeast 465 535 39,000  Level Houston Center
11:00PM 30.9797 -87.5542 127° Southeast 463 533 39,000  Level Houston Center
11:01PM 30.9017 -87.4375 128° Southeast 459 528 39,000  Level Houston Center
11:02PM 30.8233 -87.3206 128° Southeast 458 527 39,000  Level Houston Center
11:03PM 30.7450 -87.2058 128° Southeast 456 525 39,000  Level Houston Center
11:04PM 30.6658 -87.0894 128° Southeast 457 526 39,000  Level Houston Center
11:05PM 30.5858 -86.9719 128° Southeast 462 532 39,000  Level Houston Center
11:06PM 30.5064 -86.8547 128° Southeast 463 533 39,000  Level Houston Center
11:07PM 30.4089 -86.7181 130° Southeast 465 535 39,000  Level Houston Center
11:08PM 30.3278 -86.6008 129° Southeast 467 537 39,000  Level Houston Center
11:09PM 30.2272 -86.4528 128° Southeast 463 533 39,000  Level Jacksonville Center
11:10PM 30.1447 -86.3369 129° Southeast 463 533 39,000  Level Jacksonville Center
11:11PM 30.0542 -86.2089 129° Southeast 463 533 39,000  Level Jacksonville Center
11:12PM 29.9758 -86.0911 127° Southeast 463 533 39,000  Level Jacksonville Center
11:13PM 29.8911 -85.9781 131° Southeast 463 533 39,000  Level Jacksonville Center
11:14PM 29.8122 -85.8631 128° Southeast 463 533 39,000  Level Jacksonville Center
11:15PM 29.7294 -85.7483 130° Southeast 463 533 39,000  Level Jacksonville Center
11:16PM 29.6483 -85.6358 130° Southeast 463 533 39,000  Level Jacksonville Center
11:17PM 29.5672 -85.5214 129° Southeast 463 533 39,000  Level Jacksonville Center
11:18PM 29.4861 -85.4094 130° Southeast 463 533 39,000  Level Jacksonville Center
11:19PM 29.4047 -85.2978 130° Southeast 463 533 39,000  Level Jacksonville Center
11:20PM 29.3233 -85.1814 129° Southeast 463 533 39,000  Level Jacksonville Center
11:21PM 29.2397 -85.0678 130° Southeast 463 533 39,000  Level Jacksonville Center
11:22PM 29.1539 -84.9494 130° Southeast 463 533 39,000  Level Jacksonville Center
11:23PM 29.0722 -84.8358 129° Southeast 463 533 39,000  Level Jacksonville Center
11:24PM 28.9883 -84.7228 130° Southeast 463 533 39,000  Level Jacksonville Center
11:25PM 28.9064 -84.6072 129° Southeast 463 533 39,000  Level Jacksonville Center
11:26PM 28.8244 -84.4944 130° Southeast 463 533 39,000  Level Jacksonville Center
11:27PM 28.7464 -84.3939 132° Southeast 463 533 39,000  Level Jacksonville Center
11:28PM 28.6642 -84.2814 130° Southeast 463 533 39,000  Level Jacksonville Center
11:30PM 28.5483 -84.1233 130° Southeast 455 524 39,000  Level Miami Center
11:31PM 28.4661 -84.0167 131° Southeast 455 524 39,000 -120 Level Miami Center
11:32PM 28.3822 -83.9028 130° Southeast 455 524 38,800 -600 Descending Miami Center
11:33PM 28.2978 -83.7917 131° Southeast 455 524 37,900 -1,020 Descending Miami Center
11:34PM 28.2156 -83.6806 130° Southeast 455 524 36,800 -1,140 Descending Miami Center
11:35PM 28.1333 -83.5722 131° Southeast 455 524 35,700 -1,200 Descending Miami Center
11:36PM 28.0528 -83.4639 130° Southeast 455 524 34,500 -1,200 Descending Miami Center
11:37PM 27.9700 -83.3558 131° Southeast 450 518 33,300 -1,260 Descending Miami Center
11:38PM 27.8853 -83.2453 131° Southeast 455 524 32,100 -1,260 Descending Miami Center
11:39PM 27.8047 -83.1353 130° Southeast 455 524 30,900 -1,080 Descending Miami Center
11:40PM 27.7217 -83.0275 131° Southeast 455 524 30,000 -480 Descending Miami Center
11:41PM 27.6386 -82.9222 132° Southeast 450 518 30,000  Level Miami Center
11:42PM 27.5656 -82.8247 130° Southeast 450 518 30,000  Level Miami Center
11:43PM 27.4822 -82.7153 131° Southeast 450 518 30,000  Level Miami Center
11:44PM 27.3892 -82.5958 131° Southeast 457 526 30,000  Level Miami Center
11:45PM 27.3058 -82.4867 131° Southeast 457 526 30,000 -480 Level Miami Center
11:46PM 27.2306 -82.3825 129° Southeast 457 526 29,100 -1,260 Descending Miami Center
11:47PM 27.1389 -82.2686 132° Southeast 462 532 27,500 -1,500 Descending Miami Center
11:48PM 27.0631 -82.1742 132° Southeast 462 532 26,100 -1,560 Descending Miami Center
11:49PM 26.9711 -82.0558 131° Southeast 457 526 24,400 -1,680 Descending Miami Center
11:50PM 26.8933 -81.9547 131° Southeast 450 518 22,800 -1,620 Descending Miami Center
11:51PM 26.8153 -81.8581 132° Southeast 435 501 21,200 -1,620 Descending Miami Center
11:52PM 26.7436 -81.7597 129° Southeast 417 480 19,600 -1,140 Descending Miami Center
11:53PM 26.7081 -81.6350 108° East 398 458 19,000 -720 Descending Miami Center
11:54PM 26.7186 -81.5053 85° East 415 478 18,300 -1,200 Descending Miami Center
11:55PM 26.7497 -81.3811 74° East 415 478 16,700 -1,620 Descending Miami Center
11:56PM 26.7783 -81.2611 75° East 403 464 15,000 -1,740 Descending Miami Center
11:57PM 26.8047 -81.1458 76° East 397 457 13,300 -1,800 Descending Miami Center
11:58PM 26.8206 -81.0300 81° East 386 444 11,500 -1,680 Descending Miami Center
11:59PM 26.8322 -80.9142 84° East 374 430 10,000 -780 Descending Miami Center
12:00AM 26.8244 -80.8183 95° East 352 405 10,000 -180 Level Miami Center
12:01AM 26.8022 -80.7178 104° East 341 392 9,700 -1,140 Descending Miami Center
12:02AM 26.7817 -80.6217 103° East 301 346 7,800 -1,740 Descending Miami Center
12:03AM 26.7608 -80.5394 106° East 276 318 6,300 -1,500 Descending Miami Center
12:04AM 26.7417 -80.4669 106° East 269 310 4,900 -1,500 Descending Miami Center
12:05AM 26.7250 -80.3803 102° East 264 304 3,300 -1,500 Descending Miami Center
12:06AM 26.7078 -80.3169 107° East 252 290 2,000 -660 Descending Miami Center
12:07AM 26.6925 -80.2539 105° East 204 235 2,000 -180 Level Miami Center
12:08AM 26.6853 -80.2094 100° East 166 191 1,700 -360 Descending Miami Center
12:10AM 26.6832 -80.0956 50° Northeast  Level Estimated
12:17AM 26.6832 -80.0956 50° Northeast  Level Estimated
12:18AM 26.6832 -80.0956 50° Northeast  Level Estimated